createdAt,value
2023-02-11T00:01:32.168Z,37.90
2023-02-11T00:04:00.783Z,32.70
2023-02-11T00:06:31.041Z,37.60
2023-02-11T00:08:58.511Z,37.40
2023-02-11T00:11:30.642Z,34.90
2023-02-11T00:14:03.123Z,36.60
2023-02-11T00:16:32.323Z,38.00
2023-02-11T00:19:01.407Z,38.30
2023-02-11T00:21:29.717Z,36.40
2023-02-11T00:23:59.702Z,34.50
2023-02-11T00:26:31.470Z,35.20
2023-02-11T00:29:00.866Z,34.50
2023-02-11T00:31:29.229Z,37.90
2023-02-11T00:33:56.947Z,38.90
2023-02-11T00:36:27.472Z,39.00
2023-02-11T00:38:56.691Z,36.20
2023-02-11T00:41:24.782Z,35.60
2023-02-11T00:43:53.270Z,33.10
2023-02-11T00:46:21.798Z,38.20
2023-02-11T00:48:51.820Z,39.70
2023-02-11T00:51:19.359Z,41.60
2023-02-11T00:53:46.807Z,40.80
2023-02-11T00:56:14.214Z,40.90
2023-02-11T00:58:41.725Z,38.20
2023-02-11T01:01:09.227Z,33.20
2023-02-11T01:03:36.668Z,36.50
2023-02-11T01:06:05.770Z,35.90
2023-02-11T01:08:33.311Z,40.90
2023-02-11T01:11:05.632Z,34.30
2023-02-11T01:13:37.386Z,36.00
2023-02-11T01:16:07.988Z,33.90
2023-02-11T01:18:36.405Z,35.50
2023-02-11T01:21:04.813Z,40.10
2023-02-11T01:23:32.412Z,38.10
2023-02-11T01:25:59.857Z,40.60
2023-02-11T01:28:29.665Z,33.90
2023-02-11T01:30:57.369Z,33.80
2023-02-11T01:33:24.912Z,43.20
2023-02-11T01:35:53.290Z,40.00
2023-02-11T01:38:25.513Z,35.60
2023-02-11T01:40:59.433Z,39.10
2023-02-11T01:43:28.985Z,37.60
2023-02-11T01:46:21.953Z,39.90
2023-02-11T01:48:56.329Z,41.60
2023-02-11T01:51:40.685Z,42.80
2023-02-11T01:54:30.612Z,41.40
2023-02-11T01:57:18.540Z,38.40
2023-02-11T02:00:16.301Z,36.10
2023-02-11T02:03:07.930Z,37.50
2023-02-11T02:08:31.014Z,41.70
2023-02-11T02:11:00.936Z,41.60
2023-02-11T02:13:33.882Z,44.10
2023-02-11T02:16:09.924Z,39.70
2023-02-11T02:19:11.444Z,40.00
2023-02-11T02:21:56.955Z,40.70
2023-02-11T02:25:10.970Z,39.20
2023-02-11T02:28:00.216Z,44.20
2023-02-11T02:30:48.439Z,37.70
2023-02-11T02:33:39.124Z,35.80
2023-02-11T02:36:20.095Z,38.40
2023-02-11T02:39:07.816Z,39.30
2023-02-11T02:41:38.373Z,41.30
2023-02-11T02:44:07.584Z,42.70
2023-02-11T02:46:36.536Z,40.50
2023-02-11T02:49:09.984Z,36.20
2023-02-11T02:52:15.336Z,36.50
2023-02-11T02:55:10.610Z,37.20
2023-02-11T02:58:23.769Z,37.10
2023-02-11T03:01:27.081Z,35.40
2023-02-11T03:04:13.768Z,37.80
2023-02-11T03:07:42.849Z,39.00
2023-02-11T03:10:37.339Z,40.70
2023-02-11T03:13:06.157Z,37.70
2023-02-11T03:15:40.034Z,39.80
2023-02-11T03:18:12.649Z,39.20
2023-02-11T03:20:45.147Z,40.10
2023-02-11T03:23:23.250Z,41.00
2023-02-11T03:25:58.807Z,40.10
2023-02-11T03:28:57.548Z,39.40
2023-02-11T03:31:40.245Z,34.00
2023-02-11T03:34:16.023Z,39.30
2023-02-11T03:36:50.984Z,42.50
2023-02-11T03:39:24.143Z,37.20
2023-02-11T03:41:55.763Z,40.40
2023-02-11T03:44:28.768Z,39.30
2023-02-11T03:46:56.535Z,36.10
2023-02-11T03:49:26.659Z,36.80
2023-02-11T03:51:56.626Z,40.40
2023-02-11T03:54:30.788Z,38.40
2023-02-11T03:57:01.171Z,39.40
2023-02-11T03:59:28.963Z,41.50
2023-02-11T04:01:57.722Z,38.20
2023-02-11T04:04:25.347Z,38.80
2023-02-11T04:06:52.751Z,37.00
2023-02-11T04:09:20.223Z,40.80
2023-02-11T04:11:47.609Z,38.60
2023-02-11T04:14:14.932Z,37.20
2023-02-11T04:16:42.573Z,37.50
2023-02-11T04:19:10.138Z,42.70
2023-02-11T04:21:37.487Z,38.70
2023-02-11T04:24:05.507Z,38.30
2023-02-11T04:26:33.321Z,42.80
2023-02-11T04:29:00.709Z,38.40
2023-02-11T04:31:28.143Z,40.60
2023-02-11T04:33:56.940Z,37.40
2023-02-11T04:36:24.506Z,38.40
2023-02-11T04:38:51.836Z,41.70
2023-02-11T04:41:19.262Z,34.40
2023-02-11T04:43:46.640Z,36.90
2023-02-11T04:46:14.107Z,41.00
2023-02-11T04:48:41.617Z,38.00
2023-02-11T04:51:09.150Z,36.60
2023-02-11T04:53:36.678Z,36.90
2023-02-11T04:56:04.755Z,41.50
2023-02-11T04:58:32.195Z,39.00
2023-02-11T05:01:11.710Z,38.70
2023-02-11T05:03:40.323Z,41.00
2023-02-11T05:06:09.314Z,38.90
2023-02-11T05:08:36.730Z,39.40
2023-02-11T05:11:04.489Z,38.30
2023-02-11T05:13:32.473Z,41.40
2023-02-11T05:15:59.941Z,37.30
2023-02-11T05:18:27.364Z,36.30
2023-02-11T05:20:54.810Z,38.70
2023-02-11T05:23:22.245Z,36.30
2023-02-11T05:25:49.963Z,37.10
2023-02-11T05:28:18.687Z,37.50
2023-02-11T05:30:46.187Z,39.50
2023-02-11T05:33:13.712Z,45.60
2023-02-11T05:35:41.175Z,38.80
2023-02-11T05:38:08.644Z,40.10
2023-02-11T05:40:35.996Z,37.90
2023-02-11T05:43:03.453Z,37.60
2023-02-11T05:45:30.923Z,39.20
2023-02-11T05:47:58.346Z,39.70
2023-02-11T05:50:26.224Z,34.60
2023-02-11T05:52:53.605Z,38.70
2023-02-11T05:55:21.322Z,41.60
2023-02-11T05:57:48.733Z,41.80
2023-02-11T06:00:16.865Z,37.70
2023-02-11T06:02:44.384Z,38.20
2023-02-11T06:05:11.832Z,38.50
2023-02-11T06:07:39.249Z,41.00
2023-02-11T06:10:07.790Z,41.60
2023-02-11T06:12:37.767Z,40.50
2023-02-11T06:15:06.892Z,41.00
2023-02-11T06:17:34.323Z,35.10
2023-02-11T06:20:02.898Z,39.40
2023-02-11T06:22:30.687Z,38.90
2023-02-11T06:25:01.792Z,40.50
2023-02-11T06:27:30.136Z,41.70
2023-02-11T06:29:57.730Z,38.70
2023-02-11T06:35:15.027Z,35.20
2023-02-11T06:37:43.331Z,39.30
2023-02-11T06:40:12.268Z,37.50
2023-02-11T06:42:39.805Z,36.60
2023-02-11T06:45:09.625Z,39.20
2023-02-11T06:47:37.877Z,42.10
2023-02-11T06:50:08.044Z,41.10
2023-02-11T06:52:35.506Z,39.70
2023-02-11T06:55:02.971Z,39.60
2023-02-11T06:57:31.093Z,40.40
2023-02-11T06:59:58.598Z,43.80
2023-02-11T07:02:26.067Z,42.00
2023-02-11T07:04:53.487Z,41.20
2023-02-11T07:07:20.893Z,41.50
2023-02-11T07:09:48.356Z,41.00
2023-02-11T07:12:15.750Z,43.50
2023-02-11T07:14:43.322Z,40.70
2023-02-11T07:17:10.826Z,39.40
2023-02-11T07:19:38.559Z,40.70
2023-02-11T07:22:05.943Z,41.20
2023-02-11T07:24:33.363Z,43.40
2023-02-11T07:27:00.909Z,39.10
2023-02-11T07:29:28.264Z,43.40
2023-02-11T07:31:55.781Z,39.90
2023-02-11T07:34:23.226Z,43.30
2023-02-11T07:36:50.733Z,43.00
2023-02-11T07:39:18.163Z,43.30
2023-02-11T07:41:47.852Z,45.40
2023-02-11T07:44:15.734Z,39.10
2023-02-11T07:46:44.680Z,45.90
2023-02-11T07:49:12.867Z,40.40
2023-02-11T07:51:40.268Z,40.70
2023-02-11T07:54:07.860Z,41.50
2023-02-11T07:56:35.321Z,45.90
2023-02-11T07:59:03.740Z,40.60
2023-02-11T08:01:31.902Z,44.80
2023-02-11T08:04:01.604Z,44.60
2023-02-11T08:06:33.096Z,42.00
2023-02-11T08:11:35.848Z,43.80
2023-02-11T08:14:03.331Z,42.10
2023-02-11T08:16:37.418Z,38.10
2023-02-11T08:19:11.324Z,46.10
2023-02-11T08:21:40.044Z,43.50
2023-02-11T08:24:08.364Z,44.60
2023-02-11T08:26:36.271Z,38.70
2023-02-11T08:29:10.550Z,44.00
2023-02-11T08:31:42.245Z,44.10
2023-02-11T08:34:11.606Z,42.70
2023-02-11T08:36:41.025Z,42.10
2023-02-11T08:39:19.524Z,42.10
2023-02-11T08:41:53.853Z,43.60
2023-02-11T08:44:22.071Z,45.00
2023-02-11T08:46:50.802Z,44.70
2023-02-11T08:49:19.069Z,46.60
2023-02-11T08:51:47.154Z,47.30
2023-02-11T08:54:16.115Z,47.70
2023-02-11T08:56:44.503Z,41.80
2023-02-11T08:59:15.054Z,46.10
2023-02-11T09:01:44.138Z,46.70
2023-02-11T09:04:11.744Z,41.10
2023-02-11T09:06:39.733Z,47.50
2023-02-11T09:09:10.877Z,45.70
2023-02-11T09:11:38.244Z,42.90
2023-02-11T09:14:05.613Z,41.30
2023-02-11T09:16:36.376Z,47.20
2023-02-11T09:19:05.391Z,45.20
2023-02-11T09:21:33.225Z,41.40
2023-02-11T09:24:00.839Z,46.20
2023-02-11T09:26:32.114Z,47.70
2023-02-11T09:29:01.105Z,41.30
2023-02-11T09:31:30.791Z,43.80
2023-02-11T09:34:02.329Z,43.30
2023-02-11T09:39:02.146Z,44.30
2023-02-11T09:42:06.559Z,43.10
2023-02-11T09:44:37.513Z,41.30
2023-02-11T09:47:21.414Z,40.60
2023-02-11T09:49:55.024Z,40.60
2023-02-11T09:52:37.772Z,42.10
2023-02-11T09:55:19.515Z,39.10
2023-02-11T09:57:47.115Z,42.40
2023-02-11T10:00:25.363Z,41.50
2023-02-11T10:03:02.276Z,37.60
2023-02-11T10:06:19.973Z,41.30
2023-02-11T10:09:02.208Z,41.50
2023-02-11T10:11:57.823Z,38.70
2023-02-11T10:15:19.331Z,38.30
2023-02-11T10:18:07.699Z,37.60
2023-02-11T10:21:02.891Z,36.00
2023-02-11T10:23:39.715Z,38.20
2023-02-11T10:26:18.298Z,35.10
2023-02-11T10:28:53.172Z,35.70
2023-02-11T10:31:29.199Z,39.00
2023-02-11T10:34:10.756Z,36.10
2023-02-11T10:36:42.320Z,43.50
2023-02-11T10:39:23.873Z,38.90
2023-02-11T10:42:00.836Z,35.40
2023-02-11T10:44:33.446Z,40.80
2023-02-11T10:47:11.972Z,39.30
2023-02-11T10:49:42.820Z,38.20
2023-02-11T10:52:27.115Z,43.20
2023-02-11T10:55:10.155Z,39.00
2023-02-11T10:57:44.687Z,39.40
2023-02-11T11:00:18.414Z,40.70
2023-02-11T11:02:53.316Z,39.00
2023-02-11T11:05:33.448Z,38.80
2023-02-11T11:08:06.601Z,37.10
2023-02-11T11:10:43.742Z,37.50
2023-02-11T11:13:30.829Z,39.80
2023-02-11T11:16:13.433Z,36.50
2023-02-11T11:18:46.799Z,34.50
2023-02-11T11:21:27.261Z,35.00
2023-02-11T11:24:01.155Z,36.50
2023-02-11T11:26:41.790Z,32.50
2023-02-11T11:29:19.282Z,25.60
2023-02-11T11:31:55.233Z,28.30
2023-02-11T11:34:31.396Z,29.30
2023-02-11T11:37:02.170Z,25.20
2023-02-11T11:39:35.404Z,26.50
2023-02-11T11:42:29.127Z,27.80
2023-02-11T11:45:02.349Z,25.20
2023-02-11T11:47:36.642Z,24.50
2023-02-11T11:50:12.174Z,22.60
2023-02-11T11:53:07.866Z,24.20
2023-02-11T11:55:42.273Z,25.80
2023-02-11T11:58:16.752Z,18.10
2023-02-11T12:01:24.619Z,20.70
2023-02-11T12:04:05.771Z,23.20
2023-02-11T12:06:55.812Z,22.10
2023-02-11T12:09:37.081Z,22.50
2023-02-11T12:15:39.966Z,15.90
2023-02-11T12:18:39.445Z,23.20
2023-02-11T12:21:29.470Z,17.10
2023-02-11T12:24:54.335Z,17.40
2023-02-11T12:28:07.597Z,14.40
2023-02-11T12:30:59.111Z,14.20
2023-02-11T12:33:53.104Z,14.90
2023-02-11T12:36:56.108Z,17.50
2023-02-11T12:39:42.629Z,17.90
2023-02-11T12:42:40.596Z,19.10
2023-02-11T12:45:37.151Z,22.00
2023-02-11T12:48:52.090Z,18.10
2023-02-11T12:52:06.804Z,17.80
2023-02-11T12:54:52.661Z,19.60
2023-02-11T12:57:28.632Z,16.50
2023-02-11T13:00:08.024Z,16.50
2023-02-11T13:02:54.342Z,14.20
2023-02-11T13:05:49.655Z,15.00
2023-02-11T13:08:29.296Z,17.20
2023-02-11T13:11:40.103Z,16.90
2023-02-11T13:14:33.044Z,16.80
2023-02-11T13:17:00.685Z,11.80
2023-02-11T13:19:43.360Z,11.20
2023-02-11T13:22:22.830Z,13.10
2023-02-11T13:25:07.084Z,14.10
2023-02-11T13:27:59.941Z,14.10
2023-02-11T13:30:35.309Z,12.00
2023-02-11T13:33:07.045Z,12.10
2023-02-11T13:35:40.385Z,11.80
2023-02-11T13:38:21.761Z,13.90
2023-02-11T13:43:33.565Z,12.40
2023-02-11T13:46:07.408Z,12.10
2023-02-11T13:48:38.623Z,13.70
2023-02-11T13:51:10.317Z,12.00
2023-02-11T13:53:58.029Z,13.90
2023-02-11T13:56:34.651Z,11.60
2023-02-11T13:59:31.913Z,10.90
2023-02-11T14:02:17.462Z,11.70
2023-02-11T14:05:22.088Z,12.20
2023-02-11T14:08:26.225Z,10.90
2023-02-11T14:10:57.632Z,11.10
2023-02-11T14:13:33.713Z,13.30
2023-02-11T14:16:20.288Z,12.00
2023-02-11T14:18:55.686Z,12.60
2023-02-11T14:21:44.416Z,14.90
2023-02-11T14:24:12.974Z,11.30
2023-02-11T14:26:48.555Z,10.30
2023-02-11T14:30:02.587Z,11.60
2023-02-11T14:32:58.275Z,10.50
2023-02-11T14:35:45.707Z,11.40
2023-02-11T14:38:29.843Z,10.30
2023-02-11T14:41:16.676Z,9.80
2023-02-11T14:43:55.069Z,10.30
2023-02-11T14:46:25.076Z,10.50
2023-02-11T14:48:55.503Z,11.10
2023-02-11T14:51:36.151Z,18.30
2023-02-11T14:54:15.242Z,15.60
2023-02-11T14:56:44.652Z,14.40
2023-02-11T14:59:23.124Z,11.60
2023-02-11T15:01:56.731Z,11.90
2023-02-11T15:04:31.741Z,12.50
2023-02-11T15:07:06.355Z,14.20
2023-02-11T15:09:52.920Z,14.20
2023-02-11T15:12:29.381Z,13.10
2023-02-11T15:14:59.729Z,10.20
2023-02-11T15:17:30.761Z,10.70
2023-02-11T15:20:02.168Z,10.20
2023-02-11T15:22:33.553Z,10.60
2023-02-11T15:27:49.546Z,9.50
2023-02-11T15:30:24.982Z,10.30
2023-02-11T15:33:05.460Z,10.50
2023-02-11T15:35:38.017Z,9.70
2023-02-11T15:38:05.896Z,9.20
2023-02-11T15:40:36.494Z,10.20
2023-02-11T15:43:10.515Z,8.00
2023-02-11T15:45:40.515Z,9.60
2023-02-11T15:48:20.525Z,9.30
2023-02-11T15:50:58.762Z,8.90
2023-02-11T15:53:37.742Z,9.40
2023-02-11T15:56:20.558Z,9.20
2023-02-11T15:58:49.535Z,12.30
2023-02-11T16:01:17.362Z,11.10
2023-02-11T16:03:50.837Z,10.30
2023-02-11T16:06:37.698Z,11.10
2023-02-11T16:09:11.597Z,12.60
2023-02-11T16:11:48.303Z,11.30
2023-02-11T16:14:39.433Z,11.00
2023-02-11T16:17:12.745Z,11.00
2023-02-11T16:19:47.365Z,10.50
2023-02-11T16:22:25.201Z,12.10
2023-02-11T16:24:55.888Z,12.40
2023-02-11T16:27:38.406Z,11.90
2023-02-11T16:30:21.723Z,9.40
2023-02-11T16:32:49.108Z,10.10
2023-02-11T16:35:16.527Z,10.40
2023-02-11T16:37:43.946Z,14.20
2023-02-11T16:40:12.902Z,11.50
2023-02-11T16:42:40.676Z,12.40
2023-02-11T16:45:09.044Z,13.50
2023-02-11T16:47:40.951Z,14.40
2023-02-11T16:50:11.776Z,13.70
2023-02-11T16:52:39.171Z,14.80
2023-02-11T16:55:06.822Z,14.80
2023-02-11T16:57:34.268Z,12.80
2023-02-11T17:00:01.788Z,14.00
2023-02-11T17:02:34.243Z,15.10
2023-02-11T17:05:08.853Z,13.00
2023-02-11T17:07:36.275Z,12.70
2023-02-11T17:10:03.984Z,14.00
2023-02-11T17:12:31.429Z,13.30
2023-02-11T17:14:58.778Z,11.70
2023-02-11T17:17:26.236Z,10.60
2023-02-11T17:19:53.640Z,11.80
2023-02-11T17:22:21.120Z,12.00
2023-02-11T17:24:48.514Z,20.00
2023-02-11T17:27:16.182Z,13.80
2023-02-11T17:29:43.779Z,12.70
2023-02-11T17:32:11.289Z,10.60
2023-02-11T17:34:38.701Z,8.30
2023-02-11T17:37:09.347Z,8.60
2023-02-11T17:39:38.783Z,10.90
2023-02-11T17:42:07.368Z,10.10
2023-02-11T17:44:34.874Z,11.50
2023-02-11T17:47:02.247Z,10.70
2023-02-11T17:49:30.165Z,10.90
2023-02-11T17:51:57.654Z,11.80
2023-02-11T17:54:25.998Z,11.10
2023-02-11T17:56:57.816Z,13.70
2023-02-11T17:59:26.566Z,14.50
2023-02-11T18:01:54.066Z,11.70
2023-02-11T18:04:21.970Z,11.80
2023-02-11T18:06:50.380Z,12.40
2023-02-11T18:09:17.838Z,12.80
2023-02-11T18:11:45.702Z,12.50
2023-02-11T18:14:13.088Z,10.50
2023-02-11T18:16:43.081Z,10.60
2023-02-11T18:19:12.273Z,11.20
2023-02-11T18:21:43.142Z,10.10
2023-02-11T18:24:10.961Z,10.80
2023-02-11T18:26:38.448Z,10.10
2023-02-11T18:29:07.068Z,11.30
2023-02-11T18:31:37.865Z,10.60
2023-02-11T18:34:07.783Z,11.80
2023-02-11T18:36:35.945Z,12.60
2023-02-11T18:39:05.057Z,13.30
2023-02-11T18:41:32.719Z,20.00
2023-02-11T18:44:03.039Z,14.70
2023-02-11T18:46:31.388Z,11.70
2023-02-11T18:48:59.259Z,13.60
2023-02-11T18:51:26.971Z,15.10
2023-02-11T18:53:54.744Z,12.00
2023-02-11T18:56:24.624Z,15.00
2023-02-11T18:58:52.105Z,14.80
2023-02-11T19:01:24.413Z,15.60
2023-02-11T19:03:52.169Z,13.70
2023-02-11T19:06:26.269Z,13.30
2023-02-11T19:08:59.311Z,14.90
2023-02-11T19:11:47.030Z,17.00
2023-02-11T19:14:24.596Z,15.70
2023-02-11T19:16:55.913Z,16.40
2023-02-11T19:21:52.819Z,13.60
2023-02-11T19:24:22.018Z,14.30
2023-02-11T19:26:51.764Z,16.40
2023-02-11T19:29:19.783Z,18.70
2023-02-11T19:31:47.431Z,18.10
2023-02-11T19:34:17.680Z,15.80
2023-02-11T19:36:45.044Z,14.90
2023-02-11T19:39:12.998Z,14.30
2023-02-11T19:41:40.612Z,14.10
2023-02-11T19:44:08.448Z,16.40
2023-02-11T19:46:38.723Z,16.30
2023-02-11T19:49:07.171Z,13.80
2023-02-11T19:51:36.963Z,13.10
2023-02-11T19:54:04.829Z,9.50
2023-02-11T19:56:33.472Z,11.80
2023-02-11T19:59:02.771Z,11.80
2023-02-11T20:01:30.288Z,12.30
2023-02-11T20:03:57.811Z,15.10
2023-02-11T20:06:29.329Z,15.90
2023-02-11T20:09:00.328Z,16.20
2023-02-11T20:11:29.878Z,15.50
2023-02-11T20:13:58.388Z,15.20
2023-02-11T20:16:41.032Z,12.90
2023-02-11T20:19:18.794Z,12.20
2023-02-11T20:21:48.606Z,13.70
2023-02-11T20:24:17.977Z,13.30
2023-02-11T20:26:48.161Z,16.80
2023-02-11T20:29:17.864Z,12.60
2023-02-11T20:31:45.739Z,14.00
2023-02-11T20:34:13.472Z,13.20
2023-02-11T20:36:41.106Z,14.50
2023-02-11T20:39:10.946Z,13.10
2023-02-11T20:41:41.596Z,7.80
2023-02-11T20:44:10.659Z,9.10
2023-02-11T20:46:42.999Z,8.00
2023-02-11T20:49:13.521Z,7.20
2023-02-11T20:51:41.043Z,10.10
2023-02-11T20:54:17.785Z,7.90
2023-02-11T20:56:48.150Z,8.20
2023-02-11T20:59:17.600Z,10.10
2023-02-11T21:01:50.375Z,10.20
2023-02-11T21:04:22.122Z,9.10
2023-02-11T21:06:53.799Z,10.80
2023-02-11T21:09:25.247Z,9.50
2023-02-11T21:14:23.307Z,9.80
2023-02-11T21:16:52.426Z,9.30
2023-02-11T21:19:20.327Z,11.00
2023-02-11T21:21:47.931Z,10.50
2023-02-11T21:24:15.865Z,9.90
2023-02-11T21:26:43.382Z,8.20
2023-02-11T21:29:11.631Z,8.70
2023-02-11T21:31:39.465Z,9.50
2023-02-11T21:34:07.418Z,10.90
2023-02-11T21:36:35.262Z,10.00
2023-02-11T21:39:04.019Z,9.30
2023-02-11T21:41:32.034Z,8.80
2023-02-11T21:43:59.457Z,10.20
2023-02-11T21:46:27.740Z,8.60
2023-02-11T21:48:55.170Z,9.20
2023-02-11T21:51:25.805Z,9.80
2023-02-11T21:54:03.788Z,10.10
2023-02-11T21:56:33.403Z,12.70
2023-02-11T21:59:01.452Z,10.20
2023-02-11T22:01:35.271Z,10.10
2023-02-11T22:04:03.621Z,11.60
2023-02-11T22:06:34.545Z,11.00
2023-02-11T22:09:06.435Z,12.10
2023-02-11T22:11:34.397Z,13.20
2023-02-11T22:14:02.025Z,11.20
2023-02-11T22:16:30.361Z,13.80
2023-02-11T22:18:58.957Z,9.90
2023-02-11T22:21:27.860Z,11.10
2023-02-11T22:23:56.287Z,10.60
2023-02-11T22:26:26.651Z,13.00
2023-02-11T22:28:55.003Z,12.10
2023-02-11T22:31:29.958Z,15.10
2023-02-11T22:33:59.412Z,12.80
2023-02-11T22:36:34.654Z,12.90
2023-02-11T22:39:13.746Z,14.00
2023-02-11T22:41:43.449Z,12.30
2023-02-11T22:44:11.297Z,12.80
2023-02-11T22:46:39.064Z,13.80
2023-02-11T22:49:07.380Z,13.80
2023-02-11T22:51:34.873Z,13.70
2023-02-11T22:54:05.675Z,13.90
2023-02-11T22:56:35.133Z,13.40
2023-02-11T22:59:06.410Z,12.20
2023-02-11T23:01:34.419Z,11.70
2023-02-11T23:04:04.537Z,12.10
2023-02-11T23:06:32.138Z,14.00
2023-02-11T23:08:59.787Z,10.70
2023-02-11T23:11:30.521Z,9.00
2023-02-11T23:13:58.603Z,9.90
2023-02-11T23:16:33.461Z,11.40
2023-02-11T23:19:05.610Z,9.90
2023-02-11T23:21:37.127Z,9.30
2023-02-11T23:24:10.918Z,9.40
2023-02-11T23:26:41.203Z,10.10
2023-02-11T23:29:09.253Z,10.60
2023-02-11T23:31:40.388Z,13.40
2023-02-11T23:34:08.869Z,8.60
2023-02-11T23:36:36.728Z,8.90
2023-02-11T23:39:04.986Z,9.30
2023-02-11T23:41:32.401Z,10.30
2023-02-11T23:43:59.803Z,10.30
2023-02-11T23:46:27.896Z,10.30
2023-02-11T23:48:55.586Z,12.20
2023-02-11T23:51:24.195Z,11.50
2023-02-11T23:53:52.925Z,12.90
2023-02-11T23:56:27.648Z,12.80
2023-02-11T23:58:57.930Z,13.10
